createdAt,value
2018-11-27T00:01:55.000Z,100318
2018-11-27T00:02:55.000Z,100320
2018-11-27T00:04:55.000Z,100324
2018-11-27T00:05:55.000Z,100324
2018-11-27T00:07:55.000Z,100327
2018-11-27T00:09:40.000Z,100329
2018-11-27T00:10:55.000Z,100325
2018-11-27T00:12:55.000Z,100330
2018-11-27T00:14:40.000Z,100334
2018-11-27T00:15:55.000Z,100335
2018-11-27T00:17:55.000Z,100336
2018-11-27T00:19:55.000Z,100329
2018-11-27T00:21:55.000Z,100328
2018-11-27T00:23:55.000Z,100333
2018-11-27T00:25:55.000Z,100332
2018-11-27T00:27:55.000Z,100333
2018-11-27T00:28:55.000Z,100333
2018-11-27T00:29:55.000Z,100331
2018-11-27T00:31:55.000Z,100328
2018-11-27T00:33:55.000Z,100333
2018-11-27T00:35:55.000Z,100335
2018-11-27T00:36:55.000Z,100336
2018-11-27T00:38:40.000Z,100341
2018-11-27T00:39:55.000Z,100332
2018-11-27T00:41:55.000Z,100344
2018-11-27T00:43:55.000Z,100336
2018-11-27T00:45:55.000Z,100339
2018-11-27T00:47:55.000Z,100340
2018-11-27T00:48:55.000Z,100339
2018-11-27T00:50:55.000Z,100341
2018-11-27T00:52:55.000Z,100343
2018-11-27T00:54:25.000Z,100339
2018-11-27T00:55:55.000Z,100345
2018-11-27T00:56:55.000Z,100343
2018-11-27T00:57:55.000Z,100347
2018-11-27T00:58:55.000Z,100339
2018-11-27T00:59:55.000Z,100346
2018-11-27T01:01:40.000Z,100338
2018-11-27T01:02:55.000Z,100342
2018-11-27T01:04:40.000Z,100341
2018-11-27T01:05:55.000Z,100342
2018-11-27T01:07:55.000Z,100342
2018-11-27T01:09:55.000Z,100342
2018-11-27T01:11:55.000Z,100347
2018-11-27T01:13:55.000Z,100346
2018-11-27T01:14:55.000Z,100349
2018-11-27T01:16:55.000Z,100352
2018-11-27T01:17:55.000Z,100357
2018-11-27T01:19:55.000Z,100354
2018-11-27T01:21:40.000Z,100353
2018-11-27T01:22:55.000Z,100360
2018-11-27T01:24:40.000Z,100361
2018-11-27T01:25:55.000Z,100361
2018-11-27T01:26:55.000Z,100361
2018-11-27T01:28:55.000Z,100362
2018-11-27T01:29:55.000Z,100357
2018-11-27T01:30:55.000Z,100366
2018-11-27T01:32:55.000Z,100361
2018-11-27T01:34:55.000Z,100365
2018-11-27T01:35:55.000Z,100370
2018-11-27T01:36:55.000Z,100365
2018-11-27T01:38:40.000Z,100372
2018-11-27T01:39:55.000Z,100373
2018-11-27T01:40:55.000Z,100376
2018-11-27T01:42:40.000Z,100376
2018-11-27T01:43:55.000Z,100378
2018-11-27T01:45:55.000Z,100380
2018-11-27T01:47:55.000Z,100379
2018-11-27T01:48:55.000Z,100380
2018-11-27T01:50:55.000Z,100382
2018-11-27T01:52:55.000Z,100383
2018-11-27T01:54:40.000Z,100384
2018-11-27T01:55:55.000Z,100388
2018-11-27T01:57:55.000Z,100389
2018-11-27T01:59:55.000Z,100393
2018-11-27T02:00:55.000Z,100389
2018-11-27T02:02:55.000Z,100382
2018-11-27T02:03:55.000Z,100382
2018-11-27T02:05:55.000Z,100380
2018-11-27T02:07:55.000Z,100386
2018-11-27T02:08:55.000Z,100386
2018-11-27T02:10:55.000Z,100390
2018-11-27T02:12:55.000Z,100384
2018-11-27T02:14:55.000Z,100388
2018-11-27T02:16:55.000Z,100391
2018-11-27T02:18:55.000Z,100394
2018-11-27T02:19:55.000Z,100393
2018-11-27T02:20:55.000Z,100397
2018-11-27T02:21:55.000Z,100396
2018-11-27T02:23:55.000Z,100398
2018-11-27T02:24:55.000Z,100393
2018-11-27T02:26:40.000Z,100397
2018-11-27T02:27:55.000Z,100395
2018-11-27T02:28:55.000Z,100394
2018-11-27T02:30:55.000Z,100394
2018-11-27T02:32:40.000Z,100393
2018-11-27T02:33:55.000Z,100394
2018-11-27T02:35:40.000Z,100386
2018-11-27T02:37:55.000Z,100388
2018-11-27T02:39:55.000Z,100386
2018-11-27T02:40:55.000Z,100390
2018-11-27T02:42:55.000Z,100386
2018-11-27T02:44:55.000Z,100383
2018-11-27T02:46:55.000Z,100388
2018-11-27T02:48:55.000Z,100387
2018-11-27T02:49:55.000Z,100388
2018-11-27T02:51:40.000Z,100389
2018-11-27T02:53:55.000Z,100382
2018-11-27T02:55:25.000Z,100379
2018-11-27T02:56:55.000Z,100385
2018-11-27T02:58:55.000Z,100381
2018-11-27T03:00:40.000Z,100385
2018-11-27T03:01:55.000Z,100386
2018-11-27T03:03:55.000Z,100387
2018-11-27T03:05:40.000Z,100385
2018-11-27T03:06:55.000Z,100386
2018-11-27T03:08:40.000Z,100388
2018-11-27T03:09:55.000Z,100386
2018-11-27T03:11:55.000Z,100393
2018-11-27T03:13:55.000Z,100399
2018-11-27T03:14:55.000Z,100402
2018-11-27T03:16:55.000Z,100401
2018-11-27T03:18:25.000Z,100400
2018-11-27T03:19:55.000Z,100411
2018-11-27T03:20:55.000Z,100407
2018-11-27T03:21:55.000Z,100408
2018-11-27T03:23:40.000Z,100408
2018-11-27T03:24:55.000Z,100412
2018-11-27T03:25:55.000Z,100413
2018-11-27T03:27:55.000Z,100405
2018-11-27T03:28:55.000Z,100407
2018-11-27T03:29:55.000Z,100407
2018-11-27T03:30:55.000Z,100408
2018-11-27T03:31:55.000Z,100409
2018-11-27T03:33:55.000Z,100405
2018-11-27T03:35:55.000Z,100409
2018-11-27T03:37:40.000Z,100407
2018-11-27T03:38:55.000Z,100413
2018-11-27T03:40:55.000Z,100411
2018-11-27T03:42:55.000Z,100419
2018-11-27T03:44:40.000Z,100416
2018-11-27T03:45:55.000Z,100416
2018-11-27T03:47:55.000Z,100415
2018-11-27T03:49:55.000Z,100412
2018-11-27T03:51:40.000Z,100414
2018-11-27T03:52:55.000Z,100408
2018-11-27T03:54:55.000Z,100411
2018-11-27T03:55:55.000Z,100413
2018-11-27T03:57:55.000Z,100410
2018-11-27T03:59:55.000Z,100413
2018-11-27T04:01:55.000Z,100414
2018-11-27T04:02:55.000Z,100414
2018-11-27T04:04:55.000Z,100415
2018-11-27T04:06:25.000Z,100421
2018-11-27T04:07:55.000Z,100418
2018-11-27T04:09:55.000Z,100421
2018-11-27T04:11:55.000Z,100425
2018-11-27T04:13:39.000Z,100424
2018-11-27T04:14:55.000Z,100426
2018-11-27T04:16:55.000Z,100427
2018-11-27T04:17:55.000Z,100428
2018-11-27T04:19:54.000Z,100425
2018-11-27T04:20:55.000Z,100428
2018-11-27T04:21:55.000Z,100434
2018-11-27T04:23:55.000Z,100429
2018-11-27T04:25:55.000Z,100433
2018-11-27T04:26:55.000Z,100434
2018-11-27T04:28:55.000Z,100438
2018-11-27T04:29:55.000Z,100442
2018-11-27T04:31:55.000Z,100443
2018-11-27T04:33:55.000Z,100447
2018-11-27T04:35:55.000Z,100453
2018-11-27T04:37:55.000Z,100452
2018-11-27T04:39:55.000Z,100453
2018-11-27T04:40:55.000Z,100452
2018-11-27T04:42:55.000Z,100458
2018-11-27T04:43:55.000Z,100455
2018-11-27T04:45:55.000Z,100457
2018-11-27T04:47:55.000Z,100454
2018-11-27T04:49:39.000Z,100465
2018-11-27T04:50:40.000Z,100455
2018-11-27T04:52:55.000Z,100455
2018-11-27T04:54:55.000Z,100454
2018-11-27T04:56:24.000Z,100458
2018-11-27T04:57:55.000Z,100460
2018-11-27T04:59:55.000Z,100465
2018-11-27T05:01:55.000Z,100466
2018-11-27T05:03:55.000Z,100471
2018-11-27T05:05:55.000Z,100468
2018-11-27T05:06:55.000Z,100469
2018-11-27T05:08:55.000Z,100468
2018-11-27T05:09:55.000Z,100471
2018-11-27T05:11:55.000Z,100467
2018-11-27T05:12:55.000Z,100470
2018-11-27T05:13:55.000Z,100481
2018-11-27T05:14:55.000Z,100474
2018-11-27T05:16:55.000Z,100486
2018-11-27T05:18:55.000Z,100483
2018-11-27T05:20:55.000Z,100483
2018-11-27T05:22:55.000Z,100488
2018-11-27T05:24:55.000Z,100486
2018-11-27T05:25:55.000Z,100492
2018-11-27T05:26:55.000Z,100486
2018-11-27T05:28:55.000Z,100489
2018-11-27T05:30:40.000Z,100489
2018-11-27T05:31:55.000Z,100491
2018-11-27T05:33:55.000Z,100492
2018-11-27T05:35:55.000Z,100499
2018-11-27T05:37:55.000Z,100499
2018-11-27T05:39:40.000Z,100495
2018-11-27T05:40:40.000Z,100493
2018-11-27T05:41:55.000Z,100494
2018-11-27T05:43:40.000Z,100489
2018-11-27T05:45:55.000Z,100498
2018-11-27T05:47:55.000Z,100502
2018-11-27T05:49:55.000Z,100503
2018-11-27T05:51:55.000Z,100505
2018-11-27T05:53:55.000Z,100508
2018-11-27T05:55:55.000Z,100502
2018-11-27T05:57:55.000Z,100509
2018-11-27T05:59:55.000Z,100503
2018-11-27T06:00:55.000Z,100505
2018-11-27T06:01:55.000Z,100500
2018-11-27T06:03:55.000Z,100502
2018-11-27T06:04:55.000Z,100503
2018-11-27T06:05:55.000Z,100501
2018-11-27T06:07:40.000Z,100500
2018-11-27T06:08:55.000Z,100500
2018-11-27T06:10:55.000Z,100511
2018-11-27T06:11:55.000Z,100511
2018-11-27T06:13:55.000Z,100509
2018-11-27T06:14:55.000Z,100514
2018-11-27T06:15:55.000Z,100506
2018-11-27T06:16:55.000Z,100508
2018-11-27T06:18:55.000Z,100509
2018-11-27T06:20:40.000Z,100511
2018-11-27T06:21:55.000Z,100513
2018-11-27T06:22:55.000Z,100515
2018-11-27T06:24:55.000Z,100514
2018-11-27T06:26:55.000Z,100518
2018-11-27T06:27:55.000Z,100518
2018-11-27T06:29:55.000Z,100518
2018-11-27T06:30:55.000Z,100524
2018-11-27T06:31:55.000Z,100526
2018-11-27T06:33:55.000Z,100526
2018-11-27T06:35:55.000Z,100532
2018-11-27T06:36:55.000Z,100532
2018-11-27T06:38:55.000Z,100530
2018-11-27T06:39:55.000Z,100531
2018-11-27T06:40:55.000Z,100536
2018-11-27T06:42:55.000Z,100546
2018-11-27T06:43:55.000Z,100552
2018-11-27T06:45:55.000Z,100543
2018-11-27T06:47:55.000Z,100548
2018-11-27T06:48:55.000Z,100550
2018-11-27T06:50:40.000Z,100549
2018-11-27T06:51:40.000Z,100549
2018-11-27T06:52:55.000Z,100554
2018-11-27T06:53:55.000Z,100554
2018-11-27T06:55:55.000Z,100558
2018-11-27T06:56:55.000Z,100554
2018-11-27T06:58:40.000Z,100553
2018-11-27T06:59:55.000Z,100563
2018-11-27T07:00:55.000Z,100561
2018-11-27T07:02:55.000Z,100562
2018-11-27T07:03:55.000Z,100572
2018-11-27T07:05:55.000Z,100568
2018-11-27T07:07:40.000Z,100586
2018-11-27T07:08:55.000Z,100575
2018-11-27T07:10:55.000Z,100577
2018-11-27T07:12:55.000Z,100578
2018-11-27T07:14:55.000Z,100592
2018-11-27T07:16:55.000Z,100585
2018-11-27T07:17:55.000Z,100582
2018-11-27T07:19:55.000Z,100590
2018-11-27T07:21:55.000Z,100598
2018-11-27T07:23:55.000Z,100592
2018-11-27T07:24:55.000Z,100596
2018-11-27T07:26:55.000Z,100597
2018-11-27T07:28:55.000Z,100603
2018-11-27T07:30:55.000Z,100607
2018-11-27T07:32:55.000Z,100616
2018-11-27T07:34:55.000Z,100627
2018-11-27T07:35:55.000Z,100620
2018-11-27T07:37:55.000Z,100617
2018-11-27T07:39:40.000Z,100620
2018-11-27T07:41:55.000Z,100622
2018-11-27T07:42:55.000Z,100619
2018-11-27T07:43:55.000Z,100621
2018-11-27T07:45:55.000Z,100634
2018-11-27T07:47:40.000Z,100631
2018-11-27T07:48:40.000Z,100623
2018-11-27T07:49:55.000Z,100625
2018-11-27T07:51:55.000Z,100633
2018-11-27T07:52:55.000Z,100638
2018-11-27T07:54:55.000Z,100641
2018-11-27T07:56:55.000Z,100640
2018-11-27T07:57:55.000Z,100641
2018-11-27T07:59:55.000Z,100642
2018-11-27T08:01:55.000Z,100635
2018-11-27T08:03:55.000Z,100641
2018-11-27T08:05:40.000Z,100635
2018-11-27T08:06:55.000Z,100633
2018-11-27T08:08:55.000Z,100642
2018-11-27T08:10:55.000Z,100642
2018-11-27T08:11:55.000Z,100641
2018-11-27T08:13:55.000Z,100654
2018-11-27T08:14:55.000Z,100651
2018-11-27T08:16:55.000Z,100661
2018-11-27T08:18:55.000Z,100650
2018-11-27T08:20:55.000Z,100649
2018-11-27T08:21:55.000Z,100656
2018-11-27T08:23:55.000Z,100656
2018-11-27T08:24:55.000Z,100651
2018-11-27T08:25:55.000Z,100656
2018-11-27T08:27:40.000Z,100651
2018-11-27T08:28:55.000Z,100652
2018-11-27T08:30:40.000Z,100650
2018-11-27T08:31:55.000Z,100655
2018-11-27T08:32:55.000Z,100651
2018-11-27T08:33:55.000Z,100652
2018-11-27T08:34:55.000Z,100660
2018-11-27T08:36:55.000Z,100657
2018-11-27T08:37:55.000Z,100660
2018-11-27T08:39:55.000Z,100660
2018-11-27T08:41:55.000Z,100667
2018-11-27T08:43:55.000Z,100673
2018-11-27T08:45:55.000Z,100671
2018-11-27T08:47:55.000Z,100674
2018-11-27T08:48:55.000Z,100685
2018-11-27T08:49:55.000Z,100683
2018-11-27T08:51:55.000Z,100688
2018-11-27T08:53:40.000Z,100678
2018-11-27T08:54:55.000Z,100681
2018-11-27T08:56:40.000Z,100686
2018-11-27T08:57:55.000Z,100681
2018-11-27T08:59:55.000Z,100689
2018-11-27T09:00:55.000Z,100684
2018-11-27T09:02:55.000Z,100690
2018-11-27T09:04:40.000Z,100684
2018-11-27T09:06:40.000Z,100691
2018-11-27T09:08:55.000Z,100685
2018-11-27T09:09:55.000Z,100700
2018-11-27T09:11:55.000Z,100698
2018-11-27T09:12:55.000Z,100691
2018-11-27T09:14:40.000Z,100694
2018-11-27T09:15:55.000Z,100691
2018-11-27T09:16:55.000Z,100693
2018-11-27T09:18:55.000Z,100687
2018-11-27T09:20:55.000Z,100691
2018-11-27T09:22:55.000Z,100690
2018-11-27T09:23:55.000Z,100695
2018-11-27T09:24:55.000Z,100695
2018-11-27T09:26:39.000Z,100701
2018-11-27T09:27:55.000Z,100701
2018-11-27T09:29:55.000Z,100707
2018-11-27T09:30:55.000Z,100694
2018-11-27T09:31:55.000Z,100689
2018-11-27T09:33:55.000Z,100694
2018-11-27T09:35:55.000Z,100699
2018-11-27T09:37:55.000Z,100700
2018-11-27T09:38:55.000Z,100700
2018-11-27T09:40:55.000Z,100708
2018-11-27T09:42:55.000Z,100707
2018-11-27T09:44:39.000Z,100710
2018-11-27T09:45:55.000Z,100711
2018-11-27T09:46:55.000Z,100719
2018-11-27T09:48:55.000Z,100712
2018-11-27T09:50:55.000Z,100712
2018-11-27T09:52:24.000Z,100714
2018-11-27T09:53:55.000Z,100721
2018-11-27T09:55:24.000Z,100723
2018-11-27T09:56:55.000Z,100722
2018-11-27T09:58:39.000Z,100725
2018-11-27T09:59:55.000Z,100725
2018-11-27T10:01:55.000Z,100721
2018-11-27T10:02:55.000Z,100722
2018-11-27T10:04:55.000Z,100729
2018-11-27T10:06:55.000Z,100725
2018-11-27T10:07:55.000Z,100728
2018-11-27T10:09:55.000Z,100735
2018-11-27T10:11:55.000Z,100730
2018-11-27T10:12:55.000Z,100736
2018-11-27T10:14:55.000Z,100736
2018-11-27T10:15:55.000Z,100734
2018-11-27T10:17:39.000Z,100748
2018-11-27T10:18:55.000Z,100745
2018-11-27T10:20:55.000Z,100743
2018-11-27T10:21:55.000Z,100742
2018-11-27T10:23:55.000Z,100737
2018-11-27T10:25:55.000Z,100735
2018-11-27T10:27:55.000Z,100732
2018-11-27T10:28:55.000Z,100730
2018-11-27T10:30:55.000Z,100732
2018-11-27T10:31:55.000Z,100732
2018-11-27T10:32:55.000Z,100727
2018-11-27T10:34:55.000Z,100725
2018-11-27T10:36:39.000Z,100719
2018-11-27T10:37:55.000Z,100713
2018-11-27T10:39:55.000Z,100717
2018-11-27T10:40:55.000Z,100711
2018-11-27T10:42:25.000Z,100705
2018-11-27T10:43:55.000Z,100707
2018-11-27T10:44:55.000Z,100703
2018-11-27T10:45:55.000Z,100702
2018-11-27T10:47:39.000Z,100711
2018-11-27T10:48:55.000Z,100698
2018-11-27T10:50:55.000Z,100705
2018-11-27T10:51:55.000Z,100700
2018-11-27T10:53:55.000Z,100701
2018-11-27T10:54:55.000Z,100698
2018-11-27T10:56:55.000Z,100706
2018-11-27T10:58:55.000Z,100701
2018-11-27T11:00:55.000Z,100699
2018-11-27T11:02:55.000Z,100695
2018-11-27T11:04:55.000Z,100701
2018-11-27T11:06:39.000Z,100699
2018-11-27T11:07:55.000Z,100693
2018-11-27T11:09:55.000Z,100683
2018-11-27T11:11:55.000Z,100693
2018-11-27T11:13:55.000Z,100689
2018-11-27T11:15:55.000Z,100693
2018-11-27T11:17:39.000Z,100701
2018-11-27T11:18:55.000Z,100699
2018-11-27T11:19:55.000Z,100701
2018-11-27T11:21:30.000Z,100696
2018-11-27T11:23:55.000Z,100696
2018-11-27T11:25:55.000Z,100690
2018-11-27T11:26:55.000Z,100687
2018-11-27T11:27:55.000Z,100684
2018-11-27T11:29:55.000Z,100688
2018-11-27T11:31:55.000Z,100700
2018-11-27T11:32:55.000Z,100694
2018-11-27T11:34:55.000Z,100698
2018-11-27T11:36:55.000Z,100701
2018-11-27T11:37:55.000Z,100704
2018-11-27T11:38:55.000Z,100699
2018-11-27T11:40:55.000Z,100719
2018-11-27T11:42:55.000Z,100712
2018-11-27T11:44:55.000Z,100708
2018-11-27T11:45:55.000Z,100706
2018-11-27T11:47:55.000Z,100714
2018-11-27T11:49:55.000Z,100725
2018-11-27T11:50:55.000Z,100722
2018-11-27T11:51:55.000Z,100726
2018-11-27T11:53:55.000Z,100724
2018-11-27T11:55:55.000Z,100720
2018-11-27T11:58:16.000Z,100720
2018-11-27T12:00:16.000Z,100717
2018-11-27T12:02:01.000Z,100720
2018-11-27T12:03:16.000Z,100720
2018-11-27T12:04:16.000Z,100722
2018-11-27T12:06:16.000Z,100714
2018-11-27T12:07:16.000Z,100714
2018-11-27T12:09:16.000Z,100714
2018-11-27T12:11:16.000Z,100705
2018-11-27T12:12:19.000Z,100716
2018-11-27T12:14:19.000Z,100712
2018-11-27T12:16:18.000Z,100712
2018-11-27T12:18:19.000Z,100709
2018-11-27T12:20:18.000Z,100715
2018-11-27T12:21:18.000Z,100712
2018-11-27T12:23:19.000Z,100716
2018-11-27T12:25:18.000Z,100714
2018-11-27T12:27:18.000Z,100726
2018-11-27T12:28:19.000Z,100722
2018-11-27T12:30:04.000Z,100719
2018-11-27T12:32:19.000Z,100724
2018-11-27T12:34:03.000Z,100724
2018-11-27T12:35:18.000Z,100722
2018-11-27T12:37:18.000Z,100727
2018-11-27T12:38:48.000Z,100727
2018-11-27T12:40:18.000Z,100725
2018-11-27T12:42:18.000Z,100723
2018-11-27T12:44:18.000Z,100727
2018-11-27T12:46:18.000Z,100726
2018-11-27T12:48:19.000Z,100729
2018-11-27T12:50:18.000Z,100740
2018-11-27T12:52:18.000Z,100743
2018-11-27T12:54:18.000Z,100741
2018-11-27T12:55:19.000Z,100746
2018-11-27T12:56:19.000Z,100741
2018-11-27T12:58:18.000Z,100744
2018-11-27T13:00:19.000Z,100748
2018-11-27T13:02:04.000Z,100741
2018-11-27T13:03:20.000Z,100737
2018-11-27T13:05:20.000Z,100738
2018-11-27T13:07:20.000Z,100740
2018-11-27T13:09:04.000Z,100741
2018-11-27T13:10:20.000Z,100741
2018-11-27T13:12:05.000Z,100738
2018-11-27T13:13:20.000Z,100749
2018-11-27T13:15:05.000Z,100740
2018-11-27T13:16:20.000Z,100741
2018-11-27T13:17:20.000Z,100737
2018-11-27T13:18:20.000Z,100731
2018-11-27T13:19:20.000Z,100741
2018-11-27T13:21:20.000Z,100735
2018-11-27T13:23:20.000Z,100741
2018-11-27T13:24:20.000Z,100739
2018-11-27T13:25:50.000Z,100736
2018-11-27T13:28:20.000Z,100749
2018-11-27T13:29:20.000Z,100745
2018-11-27T13:31:20.000Z,100752
2018-11-27T13:33:20.000Z,100751
2018-11-27T13:34:20.000Z,100751
2018-11-27T13:36:20.000Z,100754
2018-11-27T13:37:20.000Z,100751
2018-11-27T13:39:20.000Z,100750
2018-11-27T13:41:20.000Z,100758
2018-11-27T13:43:04.000Z,100755
2018-11-27T13:44:20.000Z,100755
2018-11-27T13:45:20.000Z,100759
2018-11-27T13:47:20.000Z,100754
2018-11-27T13:49:20.000Z,100752
2018-11-27T13:50:20.000Z,100750
2018-11-27T13:51:20.000Z,100746
2018-11-27T13:53:05.000Z,100738
2018-11-27T13:54:20.000Z,100748
2018-11-27T13:55:20.000Z,100742
2018-11-27T13:57:20.000Z,100744
2018-11-27T13:59:20.000Z,100742
2018-11-27T14:00:49.000Z,100744
2018-11-27T14:02:05.000Z,100751
2018-11-27T14:04:04.000Z,100750
2018-11-27T14:05:20.000Z,100753
2018-11-27T14:06:20.000Z,100755
2018-11-27T14:07:20.000Z,100753
2018-11-27T14:08:49.000Z,100750
2018-11-27T14:10:20.000Z,100752
2018-11-27T14:11:20.000Z,100755
2018-11-27T14:13:20.000Z,100766
2018-11-27T14:15:19.000Z,100765
2018-11-27T14:17:19.000Z,100767
2018-11-27T14:18:19.000Z,100771
2018-11-27T14:20:25.000Z,100772
2018-11-27T14:22:18.000Z,100776
2018-11-27T14:24:18.000Z,100775
2018-11-27T14:26:18.000Z,100767
2018-11-27T14:27:18.000Z,100777
2018-11-27T14:29:18.000Z,100770
2018-11-27T14:30:18.000Z,100771
2018-11-27T14:31:18.000Z,100776
2018-11-27T14:33:18.000Z,100776
2018-11-27T14:34:18.000Z,100780
2018-11-27T14:36:18.000Z,100779
2018-11-27T14:38:18.000Z,100773
2018-11-27T14:39:18.000Z,100779
2018-11-27T14:41:18.000Z,100774
2018-11-27T14:43:18.000Z,100775
2018-11-27T14:45:18.000Z,100775
2018-11-27T14:47:19.000Z,100776
2018-11-27T14:49:03.000Z,100775
2018-11-27T14:50:18.000Z,100779
2018-11-27T15:28:02.000Z,100804
2018-11-27T15:29:47.000Z,100797
2018-11-27T15:31:02.000Z,100793
2018-11-27T15:32:02.000Z,100795
2018-11-27T15:34:02.000Z,100796
2018-11-27T15:35:02.000Z,100798
2018-11-27T15:36:47.000Z,100801
2018-11-27T15:38:02.000Z,100805
2018-11-27T15:39:02.000Z,100803
2018-11-27T15:40:02.000Z,100800
2018-11-27T16:18:50.000Z,100806
2018-11-27T16:20:35.000Z,100811
2018-11-27T16:22:35.000Z,100813
2018-11-27T16:24:20.000Z,100812
2018-11-27T16:25:35.000Z,100806
2018-11-27T16:27:05.000Z,100808
2018-11-27T16:28:35.000Z,100814
2018-11-27T16:29:35.000Z,100804
2018-11-27T16:31:35.000Z,100805
2018-11-27T16:33:35.000Z,100806
2018-11-27T16:35:35.000Z,100811
2018-11-27T16:37:35.000Z,100812
2018-11-27T16:38:35.000Z,100810
2018-11-27T16:40:35.000Z,100808
2018-11-27T16:42:35.000Z,100809
2018-11-27T16:44:35.000Z,100801
2018-11-27T16:45:35.000Z,100814
2018-11-27T16:47:35.000Z,100818
2018-11-27T16:49:35.000Z,100820
2018-11-27T16:51:35.000Z,100821
2018-11-27T16:52:35.000Z,100819
2018-11-27T16:54:35.000Z,100816
2018-11-27T16:55:35.000Z,100817
2018-11-27T16:56:35.000Z,100828
2018-11-27T16:57:35.000Z,100829
2018-11-27T16:59:35.000Z,100827
2018-11-27T17:01:05.000Z,100833
2018-11-27T17:02:35.000Z,100836
2018-11-27T17:03:35.000Z,100837
2018-11-27T17:04:35.000Z,100834
2018-11-27T17:05:35.000Z,100836
2018-11-27T17:07:35.000Z,100836
2018-11-27T17:08:35.000Z,100834
2018-11-27T17:10:35.000Z,100839
2018-11-27T17:11:35.000Z,100838
2018-11-27T17:13:36.000Z,100827
2018-11-27T17:15:36.000Z,100814
2018-11-27T17:16:36.000Z,100810
2018-11-27T17:18:36.000Z,100805
2018-11-27T17:20:21.000Z,100810
2018-11-27T17:21:36.000Z,100812
2018-11-27T17:23:36.000Z,100816
2018-11-27T17:24:36.000Z,100819
2018-11-27T17:26:36.000Z,100820
2018-11-27T17:27:36.000Z,100818
2018-11-27T17:29:36.000Z,100818
2018-11-27T17:30:36.000Z,100818
2018-11-27T17:32:21.000Z,100821
2018-11-27T17:33:36.000Z,100821
2018-11-27T17:35:36.000Z,100820
2018-11-27T17:36:36.000Z,100813
2018-11-27T17:37:36.000Z,100818
2018-11-27T17:39:36.000Z,100816
2018-11-27T17:40:36.000Z,100819
2018-11-27T17:42:36.000Z,100823
2018-11-27T17:43:36.000Z,100823
2018-11-27T17:44:36.000Z,100825
2018-11-27T17:46:21.000Z,100824
2018-11-27T17:47:36.000Z,100827
2018-11-27T17:49:36.000Z,100830
2018-11-27T17:51:21.000Z,100828
2018-11-27T17:52:36.000Z,100829
2018-11-27T17:53:36.000Z,100825
2018-11-27T17:55:36.000Z,100826
2018-11-27T17:57:36.000Z,100832
2018-11-27T17:59:36.000Z,100820
2018-11-27T18:00:36.000Z,100825
2018-11-27T18:02:36.000Z,100827
2018-11-27T18:04:36.000Z,100831
2018-11-27T18:06:21.000Z,100833
2018-11-27T18:07:36.000Z,100831
2018-11-27T18:09:06.000Z,100830
2018-11-27T18:10:36.000Z,100824
2018-11-27T18:12:36.000Z,100827
2018-11-27T18:13:36.000Z,100826
2018-11-27T18:15:21.000Z,100824
2018-11-27T18:16:36.000Z,100821
2018-11-27T18:18:36.000Z,100825
2018-11-27T18:19:36.000Z,100822
2018-11-27T18:21:36.000Z,100825
2018-11-27T18:23:20.000Z,100832
2018-11-27T18:24:36.000Z,100832
2018-11-27T18:25:36.000Z,100838
2018-11-27T18:26:36.000Z,100838
2018-11-27T18:28:20.000Z,100842
2018-11-27T18:29:36.000Z,100835
2018-11-27T18:31:20.000Z,100838
2018-11-27T18:32:20.000Z,100842
2018-11-27T18:33:36.000Z,100842
2018-11-27T18:34:36.000Z,100838
2018-11-27T18:36:20.000Z,100841
2018-11-27T18:37:36.000Z,100846
2018-11-27T18:38:36.000Z,100842
2018-11-27T18:40:21.000Z,100840
2018-11-27T18:42:36.000Z,100830
2018-11-27T18:43:36.000Z,100834
2018-11-27T18:45:05.000Z,100828
2018-11-27T18:46:36.000Z,100825
2018-11-27T18:48:36.000Z,100831
2018-11-27T18:50:36.000Z,100827
2018-11-27T18:51:36.000Z,100829
2018-11-27T18:53:36.000Z,100824
2018-11-27T18:54:36.000Z,100820
2018-11-27T18:56:36.000Z,100822
2018-11-27T18:58:36.000Z,100825
2018-11-27T18:59:36.000Z,100824
2018-11-27T19:00:36.000Z,100821
2018-11-27T19:02:36.000Z,100825
2018-11-27T19:03:36.000Z,100821
2018-11-27T19:05:36.000Z,100828
2018-11-27T19:07:36.000Z,100828
2018-11-27T19:09:36.000Z,100828
2018-11-27T19:11:06.000Z,100823
2018-11-27T19:12:36.000Z,100822
2018-11-27T19:13:36.000Z,100826
2018-11-27T19:15:36.000Z,100823
2018-11-27T19:16:36.000Z,100827
2018-11-27T19:17:36.000Z,100822
2018-11-27T19:19:20.000Z,100823
2018-11-27T19:20:35.000Z,100822
2018-11-27T19:22:35.000Z,100824
2018-11-27T19:24:20.000Z,100827
2018-11-27T19:25:35.000Z,100824
2018-11-27T19:27:35.000Z,100822
2018-11-27T19:29:36.000Z,100823
2018-11-27T19:31:35.000Z,100829
2018-11-27T19:32:35.000Z,100825
2018-11-27T19:33:35.000Z,100828
2018-11-27T19:35:21.000Z,100821
2018-11-27T19:37:35.000Z,100824
2018-11-27T19:38:35.000Z,100829
2018-11-27T19:40:35.000Z,100824
2018-11-27T19:41:35.000Z,100820
2018-11-27T19:43:20.000Z,100824
2018-11-27T19:44:35.000Z,100813
2018-11-27T19:45:35.000Z,100820
2018-11-27T19:47:35.000Z,100816
2018-11-27T19:49:35.000Z,100809
2018-11-27T19:50:35.000Z,100811
2018-11-27T19:51:35.000Z,100810
2018-11-27T19:53:06.000Z,100809
2018-11-27T19:54:35.000Z,100808
2018-11-27T19:56:35.000Z,100803
2018-11-27T19:58:35.000Z,100810
2018-11-27T19:59:36.000Z,100813
2018-11-27T20:01:35.000Z,100811
2018-11-27T20:02:35.000Z,100811
2018-11-27T20:03:35.000Z,100809
2018-11-27T20:04:36.000Z,100806
2018-11-27T20:06:35.000Z,100808
2018-11-27T20:07:36.000Z,100805
2018-11-27T20:09:20.000Z,100810
2018-11-27T20:10:35.000Z,100809
2018-11-27T20:12:35.000Z,100815
2018-11-27T20:14:05.000Z,100816
2018-11-27T20:15:35.000Z,100820
2018-11-27T20:17:35.000Z,100817
2018-11-27T20:18:36.000Z,100821
2018-11-27T20:20:35.000Z,100825
2018-11-27T20:22:36.000Z,100830
2018-11-27T20:24:36.000Z,100830
2018-11-27T20:25:36.000Z,100830
2018-11-27T20:27:36.000Z,100834
2018-11-27T20:29:36.000Z,100829
2018-11-27T20:31:36.000Z,100833
2018-11-27T20:32:36.000Z,100831
2018-11-27T20:34:36.000Z,100828
2018-11-27T20:35:36.000Z,100829
2018-11-27T20:36:36.000Z,100830
2018-11-27T20:38:36.000Z,100831
2018-11-27T20:39:36.000Z,100834
2018-11-27T20:40:36.000Z,100840
2018-11-27T20:41:36.000Z,100842
2018-11-27T20:43:36.000Z,100842
2018-11-27T20:44:36.000Z,100842
2018-11-27T20:45:36.000Z,100845
2018-11-27T20:47:06.000Z,100841
2018-11-27T20:48:36.000Z,100840
2018-11-27T20:49:36.000Z,100847
2018-11-27T20:51:36.000Z,100839
2018-11-27T20:52:36.000Z,100841
2018-11-27T20:54:36.000Z,100840
2018-11-27T20:55:36.000Z,100837
2018-11-27T20:57:36.000Z,100845
2018-11-27T20:59:36.000Z,100838